Mersa Matruh, Egypt
Current Conditions -  °F | °C
As of 11:00 AM on Friday 19 Dec 2014 (Local Time) from HEMM Reporting Station
Clear Clear  
Wind Chill: 64°   Ceiling: Unl
Heat Index: 64°   Visibility: 6mi
Dew Point: 54°   Wind: 10mph
Humidity: 68%   Direction: 270°W
Pressure: 30.15"   Gusts: NA
Location:  31.32°N, 27.22°E
Report Text: HEMM 190900Z 27009KT CAVOK 18/12 Q1021 NOSIG
Loading
Personal Weather Stations






























Interactive Weather Map New forecast layout! Learn more

10-Day Weather Forecast

Advertisements
Track Severe Weather on mobile